sensor_id;sensor_type;location;lat;lon;timestamp;temperature;humidity
74484;SHT31;62942;52.462;10.846;2022-10-17T00:00:07;12.5;92.4
74484;SHT31;62942;52.462;10.846;2022-10-17T00:01:17;12.5;92.5
74484;SHT31;62942;52.462;10.846;2022-10-17T00:02:27;12.5;92.5
74484;SHT31;62942;52.462;10.846;2022-10-17T00:03:37;12.4;92.6
74484;SHT31;62942;52.462;10.846;2022-10-17T00:04:47;12.4;92.7
74484;SHT31;62942;52.462;10.846;2022-10-17T00:05:47;12.4;92.7
74484;SHT31;62942;52.462;10.846;2022-10-17T00:06:57;12.3;92.8
74484;SHT31;62942;52.462;10.846;2022-10-17T00:08:07;12.3;92.9
74484;SHT31;62942;52.462;10.846;2022-10-17T00:09:17;12.3;92.9
74484;SHT31;62942;52.462;10.846;2022-10-17T00:10:17;12.3;92.9
74484;SHT31;62942;52.462;10.846;2022-10-17T00:11:27;12.3;93
74484;SHT31;62942;52.462;10.846;2022-10-17T00:12:27;12.3;93
74484;SHT31;62942;52.462;10.846;2022-10-17T00:13:37;12.2;93
74484;SHT31;62942;52.462;10.846;2022-10-17T00:14:37;12.2;93
74484;SHT31;62942;52.462;10.846;2022-10-17T00:15:47;12.2;93.1
74484;SHT31;62942;52.462;10.846;2022-10-17T00:16:57;12.2;93.1
74484;SHT31;62942;52.462;10.846;2022-10-17T00:18:07;12.2;93.2
74484;SHT31;62942;52.462;10.846;2022-10-17T00:19:07;12.1;93.3
74484;SHT31;62942;52.462;10.846;2022-10-17T00:20:17;12.1;93.3
74484;SHT31;62942;52.462;10.846;2022-10-17T00:21:17;12.1;93.3
74484;SHT31;62942;52.462;10.846;2022-10-17T00:22:27;12.1;93.4
74484;SHT31;62942;52.462;10.846;2022-10-17T00:23:37;12.1;93.4
74484;SHT31;62942;52.462;10.846;2022-10-17T00:24:37;12.1;93.4
74484;SHT31;62942;52.462;10.846;2022-10-17T00:25:47;12.1;93.4
74484;SHT31;62942;52.462;10.846;2022-10-17T00:26:57;12.1;93.4
74484;SHT31;62942;52.462;10.846;2022-10-17T00:27:57;12;93.5
74484;SHT31;62942;52.462;10.846;2022-10-17T00:29:07;12.1;93.5
74484;SHT31;62942;52.462;10.846;2022-10-17T00:30:17;12;93.5
74484;SHT31;62942;52.462;10.846;2022-10-17T00:31:17;12;93.6
74484;SHT31;62942;52.462;10.846;2022-10-17T00:32:27;12;93.6
74484;SHT31;62942;52.462;10.846;2022-10-17T00:33:37;12;93.6
74484;SHT31;62942;52.462;10.846;2022-10-17T00:34:37;12;93.6
74484;SHT31;62942;52.462;10.846;2022-10-17T00:35:47;12;93.7
74484;SHT31;62942;52.462;10.846;2022-10-17T00:36:47;12;93.7
74484;SHT31;62942;52.462;10.846;2022-10-17T00:37:57;12;93.7
74484;SHT31;62942;52.462;10.846;2022-10-17T00:39:07;12;93.7
74484;SHT31;62942;52.462;10.846;2022-10-17T00:40:17;11.9;93.7
74484;SHT31;62942;52.462;10.846;2022-10-17T00:41:18;11.9;93.6
74484;SHT31;62942;52.462;10.846;2022-10-17T00:42:27;11.9;93.7
74484;SHT31;62942;52.462;10.846;2022-10-17T00:43:54;11.9;93.7
74484;SHT31;62942;52.462;10.846;2022-10-17T00:45:15;11.9;93.8
74484;SHT31;62942;52.462;10.846;2022-10-17T00:45:47;11.9;93.8
74484;SHT31;62942;52.462;10.846;2022-10-17T00:46:57;11.9;93.8
74484;SHT31;62942;52.462;10.846;2022-10-17T00:47:57;11.9;93.9
74484;SHT31;62942;52.462;10.846;2022-10-17T00:49:07;11.9;93.9
74484;SHT31;62942;52.462;10.846;2022-10-17T00:50:07;11.9;94
74484;SHT31;62942;52.462;10.846;2022-10-17T00:51:07;11.8;94
74484;SHT31;62942;52.462;10.846;2022-10-17T00:52:18;11.8;94.1
74484;SHT31;62942;52.462;10.846;2022-10-17T00:53:17;11.8;94.1
74484;SHT31;62942;52.462;10.846;2022-10-17T00:54:18;11.8;94.2
74484;SHT31;62942;52.462;10.846;2022-10-17T00:55:28;11.8;94.2
74484;SHT31;62942;52.462;10.846;2022-10-17T00:56:37;11.8;94.3
74484;SHT31;62942;52.462;10.846;2022-10-17T00:57:37;11.9;94.3
74484;SHT31;62942;52.462;10.846;2022-10-17T00:58:47;11.8;94.4
74484;SHT31;62942;52.462;10.846;2022-10-17T00:59:57;11.8;94.4
74484;SHT31;62942;52.462;10.846;2022-10-17T01:01:07;11.8;94.4
74484;SHT31;62942;52.462;10.846;2022-10-17T01:02:07;11.8;94.4
74484;SHT31;62942;52.462;10.846;2022-10-17T01:03:17;11.8;94.4
74484;SHT31;62942;52.462;10.846;2022-10-17T01:04:27;11.8;94.3
74484;SHT31;62942;52.462;10.846;2022-10-17T01:05:37;11.8;94.4
74484;SHT31;62942;52.462;10.846;2022-10-17T01:06:47;11.8;94.3
74484;SHT31;62942;52.462;10.846;2022-10-17T01:07:57;11.8;94.3
74484;SHT31;62942;52.462;10.846;2022-10-17T01:09:07;11.8;94.3
74484;SHT31;62942;52.462;10.846;2022-10-17T01:10:17;11.8;94.3
74484;SHT31;62942;52.462;10.846;2022-10-17T01:11:30;11.8;94.4
74484;SHT31;62942;52.462;10.846;2022-10-17T01:12:27;11.8;94.5
74484;SHT31;62942;52.462;10.846;2022-10-17T01:13:29;11.8;94.5
74484;SHT31;62942;52.462;10.846;2022-10-17T01:14:38;11.8;94.6
74484;SHT31;62942;52.462;10.846;2022-10-17T01:15:40;11.9;94.6
74484;SHT31;62942;52.462;10.846;2022-10-17T01:16:48;11.9;94.6
74484;SHT31;62942;52.462;10.846;2022-10-17T01:18:01;11.9;94.6
74484;SHT31;62942;52.462;10.846;2022-10-17T01:19:11;12;94.5
74484;SHT31;62942;52.462;10.846;2022-10-17T01:21:20;12;94.4
74484;SHT31;62942;52.462;10.846;2022-10-17T01:22:27;12.1;94.2
74484;SHT31;62942;52.462;10.846;2022-10-17T01:23:41;12.1;94.1
74484;SHT31;62942;52.462;10.846;2022-10-17T01:24:47;12.1;94
74484;SHT31;62942;52.462;10.846;2022-10-17T01:25:49;12.1;93.8
74484;SHT31;62942;52.462;10.846;2022-10-17T01:26:59;12.1;93.6
74484;SHT31;62942;52.462;10.846;2022-10-17T01:28:11;12.1;93.4
74484;SHT31;62942;52.462;10.846;2022-10-17T01:29:21;12.2;93.2
74484;SHT31;62942;52.462;10.846;2022-10-17T01:30:23;12.1;93
74484;SHT31;62942;52.462;10.846;2022-10-17T01:31:28;12.1;92.9
74484;SHT31;62942;52.462;10.846;2022-10-17T01:32:37;12.1;92.7
74484;SHT31;62942;52.462;10.846;2022-10-17T01:33:41;12.1;92.6
74484;SHT31;62942;52.462;10.846;2022-10-17T01:34:48;12.1;92.5
74484;SHT31;62942;52.462;10.846;2022-10-17T01:35:47;12.1;92.5
74484;SHT31;62942;52.462;10.846;2022-10-17T01:36:58;12.1;92.4
74484;SHT31;62942;52.462;10.846;2022-10-17T01:37:58;12.1;92.4
74484;SHT31;62942;52.462;10.846;2022-10-17T01:39:09;12.1;92.4
74484;SHT31;62942;52.462;10.846;2022-10-17T01:40:19;12.1;92.3
74484;SHT31;62942;52.462;10.846;2022-10-17T01:41:29;12.1;92.3
74484;SHT31;62942;52.462;10.846;2022-10-17T01:42:37;12.1;92.3
74484;SHT31;62942;52.462;10.846;2022-10-17T01:43:38;12.1;92.2
74484;SHT31;62942;52.462;10.846;2022-10-17T01:44:47;12.1;92.3
74484;SHT31;62942;52.462;10.846;2022-10-17T01:45:48;12.1;92.2
74484;SHT31;62942;52.462;10.846;2022-10-17T01:46:57;12.1;92.3
74484;SHT31;62942;52.462;10.846;2022-10-17T01:47:57;12.1;92.2
74484;SHT31;62942;52.462;10.846;2022-10-17T01:49:07;12.1;92.2
74484;SHT31;62942;52.462;10.846;2022-10-17T01:50:17;12.1;92.1
74484;SHT31;62942;52.462;10.846;2022-10-17T01:51:27;12.1;92.1
74484;SHT31;62942;52.462;10.846;2022-10-17T01:52:29;12.1;92
74484;SHT31;62942;52.462;10.846;2022-10-17T01:53:37;12.1;92
74484;SHT31;62942;52.462;10.846;2022-10-17T01:54:47;12.1;91.9
74484;SHT31;62942;52.462;10.846;2022-10-17T01:55:58;12.1;91.9
74484;SHT31;62942;52.462;10.846;2022-10-17T01:57:08;12.1;91.9
74484;SHT31;62942;52.462;10.846;2022-10-17T01:58:18;12;92
74484;SHT31;62942;52.462;10.846;2022-10-17T01:59:18;12.1;91.9
74484;SHT31;62942;52.462;10.846;2022-10-17T02:00:26;12.1;92
74484;SHT31;62942;52.462;10.846;2022-10-17T02:01:27;12.1;92
74484;SHT31;62942;52.462;10.846;2022-10-17T02:02:36;12;92
74484;SHT31;62942;52.462;10.846;2022-10-17T02:03:47;12;92.1
74484;SHT31;62942;52.462;10.846;2022-10-17T02:04:56;12;92.1
74484;SHT31;62942;52.462;10.846;2022-10-17T02:05:56;12;92.1
74484;SHT31;62942;52.462;10.846;2022-10-17T02:07:07;12;92.1
74484;SHT31;62942;52.462;10.846;2022-10-17T02:08:23;12;92.1
74484;SHT31;62942;52.462;10.846;2022-10-17T02:09:26;12;92.2
74484;SHT31;62942;52.462;10.846;2022-10-17T02:10:38;11.9;92.2
74484;SHT31;62942;52.462;10.846;2022-10-17T02:11:36;11.9;92.2
74484;SHT31;62942;52.462;10.846;2022-10-17T02:12:40;11.9;92.3
74484;SHT31;62942;52.462;10.846;2022-10-17T02:13:50;11.9;92.3
74484;SHT31;62942;52.462;10.846;2022-10-17T02:14:50;11.9;92.4
74484;SHT31;62942;52.462;10.846;2022-10-17T02:15:53;11.9;92.4
74484;SHT31;62942;52.462;10.846;2022-10-17T02:16:58;11.8;92.5
74484;SHT31;62942;52.462;10.846;2022-10-17T02:17:58;11.8;92.5
74484;SHT31;62942;52.462;10.846;2022-10-17T02:19:11;11.8;92.6
74484;SHT31;62942;52.462;10.846;2022-10-17T02:20:19;11.8;92.6
74484;SHT31;62942;52.462;10.846;2022-10-17T02:21:27;11.8;92.7
74484;SHT31;62942;52.462;10.846;2022-10-17T02:22:37;11.8;92.7
74484;SHT31;62942;52.462;10.846;2022-10-17T02:23:38;11.7;92.7
74484;SHT31;62942;52.462;10.846;2022-10-17T02:24:48;11.7;92.7
74484;SHT31;62942;52.462;10.846;2022-10-17T02:25:59;11.7;92.7
74484;SHT31;62942;52.462;10.846;2022-10-17T02:27:07;11.7;92.8
74484;SHT31;62942;52.462;10.846;2022-10-17T02:28:18;11.6;92.8
74484;SHT31;62942;52.462;10.846;2022-10-17T02:29:27;11.6;92.9
74484;SHT31;62942;52.462;10.846;2022-10-17T02:30:38;11.6;93
74484;SHT31;62942;52.462;10.846;2022-10-17T02:31:47;11.6;93.1
74484;SHT31;62942;52.462;10.846;2022-10-17T02:32:48;11.5;93.2
74484;SHT31;62942;52.462;10.846;2022-10-17T02:33:57;11.5;93.3
74484;SHT31;62942;52.462;10.846;2022-10-17T02:35:07;11.5;93.4
74484;SHT31;62942;52.462;10.846;2022-10-17T02:36:18;11.5;93.5
74484;SHT31;62942;52.462;10.846;2022-10-17T02:37:27;11.4;93.5
74484;SHT31;62942;52.462;10.846;2022-10-17T02:38:26;11.4;93.6
74484;SHT31;62942;52.462;10.846;2022-10-17T02:39:36;11.4;93.7
74484;SHT31;62942;52.462;10.846;2022-10-17T02:40:46;11.4;93.8
74484;SHT31;62942;52.462;10.846;2022-10-17T02:41:57;11.4;93.9
74484;SHT31;62942;52.462;10.846;2022-10-17T02:42:57;11.4;93.9
74484;SHT31;62942;52.462;10.846;2022-10-17T02:44:06;11.4;94
74484;SHT31;62942;52.462;10.846;2022-10-17T02:45:16;11.4;94
74484;SHT31;62942;52.462;10.846;2022-10-17T02:46:26;11.4;94.1
74484;SHT31;62942;52.462;10.846;2022-10-17T02:47:27;11.4;94.1
74484;SHT31;62942;52.462;10.846;2022-10-17T02:48:37;11.4;94.1
74484;SHT31;62942;52.462;10.846;2022-10-17T02:49:49;11.4;94.2
74484;SHT31;62942;52.462;10.846;2022-10-17T02:50:57;11.4;94.2
74484;SHT31;62942;52.462;10.846;2022-10-17T02:52:07;11.4;94.3
74484;SHT31;62942;52.462;10.846;2022-10-17T02:53:19;11.4;94.3
74484;SHT31;62942;52.462;10.846;2022-10-17T02:54:18;11.4;94.3
74484;SHT31;62942;52.462;10.846;2022-10-17T02:55:28;11.4;94.3
74484;SHT31;62942;52.462;10.846;2022-10-17T02:56:38;11.3;94.3
74484;SHT31;62942;52.462;10.846;2022-10-17T02:57:47;11.3;94.3
74484;SHT31;62942;52.462;10.846;2022-10-17T02:58:57;11.3;94.3
74484;SHT31;62942;52.462;10.846;2022-10-17T02:59:57;11.3;94.3
74484;SHT31;62942;52.462;10.846;2022-10-17T03:01:06;11.2;94.3
74484;SHT31;62942;52.462;10.846;2022-10-17T03:02:16;11.2;94.3
74484;SHT31;62942;52.462;10.846;2022-10-17T03:03:27;11.2;94.3
74484;SHT31;62942;52.462;10.846;2022-10-17T03:04:36;11.2;94.3
74484;SHT31;62942;52.462;10.846;2022-10-17T03:05:46;11.1;94.3
74484;SHT31;62942;52.462;10.846;2022-10-17T03:06:56;11.1;94.4
74484;SHT31;62942;52.462;10.846;2022-10-17T03:07:56;11.1;94.5
74484;SHT31;62942;52.462;10.846;2022-10-17T03:09:07;11.1;94.5
74484;SHT31;62942;52.462;10.846;2022-10-17T03:10:16;11.1;94.6
74484;SHT31;62942;52.462;10.846;2022-10-17T03:11:26;11.1;94.6
74484;SHT31;62942;52.462;10.846;2022-10-17T03:12:36;11.1;94.7
74484;SHT31;62942;52.462;10.846;2022-10-17T03:13:46;11.1;94.7
74484;SHT31;62942;52.462;10.846;2022-10-17T03:14:56;11.1;94.8
74484;SHT31;62942;52.462;10.846;2022-10-17T03:16:07;11.1;94.9
74484;SHT31;62942;52.462;10.846;2022-10-17T03:17:16;11.1;94.9
74484;SHT31;62942;52.462;10.846;2022-10-17T03:18:26;11.1;94.9
74484;SHT31;62942;52.462;10.846;2022-10-17T03:19:36;11.1;94.9
74484;SHT31;62942;52.462;10.846;2022-10-17T03:20:36;11.1;94.9
74484;SHT31;62942;52.462;10.846;2022-10-17T03:21:36;11.1;94.9
74484;SHT31;62942;52.462;10.846;2022-10-17T03:22:46;11.1;94.9
74484;SHT31;62942;52.462;10.846;2022-10-17T03:23:56;11.1;95
74484;SHT31;62942;52.462;10.846;2022-10-17T03:25:07;11.1;95
74484;SHT31;62942;52.462;10.846;2022-10-17T03:26:16;11.1;95
74484;SHT31;62942;52.462;10.846;2022-10-17T03:27:26;11.1;94.9
74484;SHT31;62942;52.462;10.846;2022-10-17T03:28:36;11.1;94.9
74484;SHT31;62942;52.462;10.846;2022-10-17T03:29:36;11.1;94.9
74484;SHT31;62942;52.462;10.846;2022-10-17T03:30:46;11;94.9
74484;SHT31;62942;52.462;10.846;2022-10-17T03:31:56;11;94.9
74484;SHT31;62942;52.462;10.846;2022-10-17T03:33:06;11;95
74484;SHT31;62942;52.462;10.846;2022-10-17T03:34:16;11;94.9
74484;SHT31;62942;52.462;10.846;2022-10-17T03:35:16;11;94.9
74484;SHT31;62942;52.462;10.846;2022-10-17T03:36:17;11;94.9
74484;SHT31;62942;52.462;10.846;2022-10-17T03:37:26;11;94.9
74484;SHT31;62942;52.462;10.846;2022-10-17T03:38:36;11;95
74484;SHT31;62942;52.462;10.846;2022-10-17T03:39:36;11;95
74484;SHT31;62942;52.462;10.846;2022-10-17T03:40:53;10.9;95.1
74484;SHT31;62942;52.462;10.846;2022-10-17T03:41:56;10.9;95.1
74484;SHT31;62942;52.462;10.846;2022-10-17T03:42:56;10.9;95.1
74484;SHT31;62942;52.462;10.846;2022-10-17T03:44:06;11;95.2
74484;SHT31;62942;52.462;10.846;2022-10-17T03:45:16;11;95.2
74484;SHT31;62942;52.462;10.846;2022-10-17T03:46:26;11;95.3
74484;SHT31;62942;52.462;10.846;2022-10-17T03:47:36;11;95.3
74484;SHT31;62942;52.462;10.846;2022-10-17T03:48:46;11;95.3
74484;SHT31;62942;52.462;10.846;2022-10-17T03:49:56;11;95.3
74484;SHT31;62942;52.462;10.846;2022-10-17T03:50:57;11;95.4
74484;SHT31;62942;52.462;10.846;2022-10-17T03:52:09;10.9;95.4
74484;SHT31;62942;52.462;10.846;2022-10-17T03:53:16;10.9;95.4
74484;SHT31;62942;52.462;10.846;2022-10-17T03:54:26;10.9;95.4
74484;SHT31;62942;52.462;10.846;2022-10-17T03:55:36;10.9;95.4
74484;SHT31;62942;52.462;10.846;2022-10-17T03:56:36;10.9;95.4
74484;SHT31;62942;52.462;10.846;2022-10-17T03:57:46;10.9;95.4
74484;SHT31;62942;52.462;10.846;2022-10-17T03:58:56;10.8;95.4
74484;SHT31;62942;52.462;10.846;2022-10-17T04:00:07;10.8;95.4
74484;SHT31;62942;52.462;10.846;2022-10-17T04:01:17;10.8;95.4
74484;SHT31;62942;52.462;10.846;2022-10-17T04:02:16;10.8;95.5
74484;SHT31;62942;52.462;10.846;2022-10-17T04:03:26;10.8;95.5
74484;SHT31;62942;52.462;10.846;2022-10-17T04:04:26;10.8;95.6
74484;SHT31;62942;52.462;10.846;2022-10-17T04:05:36;10.9;95.6
74484;SHT31;62942;52.462;10.846;2022-10-17T04:06:46;10.9;95.7
74484;SHT31;62942;52.462;10.846;2022-10-17T04:07:56;10.9;95.7
74484;SHT31;62942;52.462;10.846;2022-10-17T04:09:07;10.9;95.8
74484;SHT31;62942;52.462;10.846;2022-10-17T04:10:16;10.9;95.7
74484;SHT31;62942;52.462;10.846;2022-10-17T04:11:26;10.8;95.8
74484;SHT31;62942;52.462;10.846;2022-10-17T04:12:26;10.8;95.8
74484;SHT31;62942;52.462;10.846;2022-10-17T04:13:36;10.8;95.8
74484;SHT31;62942;52.462;10.846;2022-10-17T04:14:46;10.8;95.8
74484;SHT31;62942;52.462;10.846;2022-10-17T04:16:00;10.8;95.8
74484;SHT31;62942;52.462;10.846;2022-10-17T04:16:56;10.8;95.8
74484;SHT31;62942;52.462;10.846;2022-10-17T04:18:06;10.8;95.8
74484;SHT31;62942;52.462;10.846;2022-10-17T04:19:16;10.8;95.9
74484;SHT31;62942;52.462;10.846;2022-10-17T04:20:26;10.8;96
74484;SHT31;62942;52.462;10.846;2022-10-17T04:21:27;10.8;95.9
74484;SHT31;62942;52.462;10.846;2022-10-17T04:22:36;10.8;96
74484;SHT31;62942;52.462;10.846;2022-10-17T04:23:46;10.8;96
74484;SHT31;62942;52.462;10.846;2022-10-17T04:24:56;10.8;96.1
74484;SHT31;62942;52.462;10.846;2022-10-17T04:26:06;10.8;96.1
74484;SHT31;62942;52.462;10.846;2022-10-17T04:27:06;10.8;96.1
74484;SHT31;62942;52.462;10.846;2022-10-17T04:28:16;10.8;96.1
74484;SHT31;62942;52.462;10.846;2022-10-17T04:29:26;10.8;96.1
74484;SHT31;62942;52.462;10.846;2022-10-17T04:30:26;10.8;96.1
74484;SHT31;62942;52.462;10.846;2022-10-17T04:31:36;10.8;96.1
74484;SHT31;62942;52.462;10.846;2022-10-17T04:32:46;10.7;96.1
74484;SHT31;62942;52.462;10.846;2022-10-17T04:33:56;10.7;96.2
74484;SHT31;62942;52.462;10.846;2022-10-17T04:34:56;10.7;96.2
74484;SHT31;62942;52.462;10.846;2022-10-17T04:36:07;10.7;96.2
74484;SHT31;62942;52.462;10.846;2022-10-17T04:37:16;10.7;96.2
74484;SHT31;62942;52.462;10.846;2022-10-17T04:38:16;10.7;96.3
74484;SHT31;62942;52.462;10.846;2022-10-17T04:39:26;10.7;96.3
74484;SHT31;62942;52.462;10.846;2022-10-17T04:40:36;10.7;96.3
74484;SHT31;62942;52.462;10.846;2022-10-17T04:41:36;10.6;96.3
74484;SHT31;62942;52.462;10.846;2022-10-17T04:42:36;10.6;96.3
74484;SHT31;62942;52.462;10.846;2022-10-17T04:43:46;10.5;96.3
74484;SHT31;62942;52.462;10.846;2022-10-17T04:44:56;10.5;96.3
74484;SHT31;62942;52.462;10.846;2022-10-17T04:46:08;10.5;96.3
74484;SHT31;62942;52.462;10.846;2022-10-17T04:47:16;10.4;96.3
74484;SHT31;62942;52.462;10.846;2022-10-17T04:48:16;10.4;96.3
74484;SHT31;62942;52.462;10.846;2022-10-17T04:49:16;10.4;96.3
74484;SHT31;62942;52.462;10.846;2022-10-17T04:50:26;10.4;96.3
74484;SHT31;62942;52.462;10.846;2022-10-17T04:51:36;10.3;96.3
74484;SHT31;62942;52.462;10.846;2022-10-17T04:52:46;10.3;96.3
74484;SHT31;62942;52.462;10.846;2022-10-17T04:53:46;10.3;96.3
74484;SHT31;62942;52.462;10.846;2022-10-17T04:54:56;10.3;96.3
74484;SHT31;62942;52.462;10.846;2022-10-17T04:55:56;10.2;96.3
74484;SHT31;62942;52.462;10.846;2022-10-17T04:56:56;10.2;96.3
74484;SHT31;62942;52.462;10.846;2022-10-17T04:58:06;10.2;96.4
74484;SHT31;62942;52.462;10.846;2022-10-17T04:59:16;10.2;96.4
74484;SHT31;62942;52.462;10.846;2022-10-17T05:00:26;10.2;96.4
74484;SHT31;62942;52.462;10.846;2022-10-17T05:01:36;10.2;96.5
74484;SHT31;62942;52.462;10.846;2022-10-17T05:02:36;10.2;96.5
74484;SHT31;62942;52.462;10.846;2022-10-17T05:03:46;10.2;96.6
74484;SHT31;62942;52.462;10.846;2022-10-17T05:04:56;10.1;96.6
74484;SHT31;62942;52.462;10.846;2022-10-17T05:06:07;10.1;96.6
74484;SHT31;62942;52.462;10.846;2022-10-17T05:07:16;10.1;96.6
74484;SHT31;62942;52.462;10.846;2022-10-17T05:08:26;10;96.6
74484;SHT31;62942;52.462;10.846;2022-10-17T05:09:36;10;96.6
74484;SHT31;62942;52.462;10.846;2022-10-17T05:10:46;10;96.5
74484;SHT31;62942;52.462;10.846;2022-10-17T05:11:56;10;96.5
74484;SHT31;62942;52.462;10.846;2022-10-17T05:13:06;10;96.6
74484;SHT31;62942;52.462;10.846;2022-10-17T05:14:16;10;96.6
74484;SHT31;62942;52.462;10.846;2022-10-17T05:15:26;10;96.6
74484;SHT31;62942;52.462;10.846;2022-10-17T05:16:36;10;96.6
74484;SHT31;62942;52.462;10.846;2022-10-17T05:17:46;10;96.7
74484;SHT31;62942;52.462;10.846;2022-10-17T05:18:57;9.9;96.7
74484;SHT31;62942;52.462;10.846;2022-10-17T05:20:07;10;96.8
74484;SHT31;62942;52.462;10.846;2022-10-17T05:21:16;10;96.8
74484;SHT31;62942;52.462;10.846;2022-10-17T05:22:16;10;96.8
74484;SHT31;62942;52.462;10.846;2022-10-17T05:23:28;10;96.9
74484;SHT31;62942;52.462;10.846;2022-10-17T05:24:36;10;96.9
74484;SHT31;62942;52.462;10.846;2022-10-17T05:25:46;10;97
74484;SHT31;62942;52.462;10.846;2022-10-17T05:26:48;10;97
74484;SHT31;62942;52.462;10.846;2022-10-17T05:27:56;10;97.1
74484;SHT31;62942;52.462;10.846;2022-10-17T05:29:06;10;97.1
74484;SHT31;62942;52.462;10.846;2022-10-17T05:30:16;10;97.2
74484;SHT31;62942;52.462;10.846;2022-10-17T05:31:26;10;97.2
74484;SHT31;62942;52.462;10.846;2022-10-17T05:32:36;10;97.2
74484;SHT31;62942;52.462;10.846;2022-10-17T05:33:46;10;97.2
74484;SHT31;62942;52.462;10.846;2022-10-17T05:34:56;10;97.2
74484;SHT31;62942;52.462;10.846;2022-10-17T05:36:06;10;97.2
74484;SHT31;62942;52.462;10.846;2022-10-17T05:37:06;9.9;97.2
74484;SHT31;62942;52.462;10.846;2022-10-17T05:38:16;10;97.2
74484;SHT31;62942;52.462;10.846;2022-10-17T05:39:26;9.9;97.2
74484;SHT31;62942;52.462;10.846;2022-10-17T05:40:26;9.9;97.2
74484;SHT31;62942;52.462;10.846;2022-10-17T05:41:36;9.9;97.2
74484;SHT31;62942;52.462;10.846;2022-10-17T05:42:36;9.9;97.2
74484;SHT31;62942;52.462;10.846;2022-10-17T05:43:46;9.9;97.2
74484;SHT31;62942;52.462;10.846;2022-10-17T05:44:56;9.9;97.2
74484;SHT31;62942;52.462;10.846;2022-10-17T05:46:06;9.9;97.2
74484;SHT31;62942;52.462;10.846;2022-10-17T05:47:06;9.9;97.2
74484;SHT31;62942;52.462;10.846;2022-10-17T05:48:16;9.9;97.2
74484;SHT31;62942;52.462;10.846;2022-10-17T05:49:26;9.9;97.2
74484;SHT31;62942;52.462;10.846;2022-10-17T05:50:36;9.9;97.2
74484;SHT31;62942;52.462;10.846;2022-10-17T05:51:46;9.9;97.3
74484;SHT31;62942;52.462;10.846;2022-10-17T05:52:56;9.9;97.3
74484;SHT31;62942;52.462;10.846;2022-10-17T05:53:56;9.9;97.3
74484;SHT31;62942;52.462;10.846;2022-10-17T05:54:56;9.9;97.3
74484;SHT31;62942;52.462;10.846;2022-10-17T05:56:07;9.9;97.3
74484;SHT31;62942;52.462;10.846;2022-10-17T05:57:06;9.9;97.3
74484;SHT31;62942;52.462;10.846;2022-10-17T05:58:16;9.9;97.4
74484;SHT31;62942;52.462;10.846;2022-10-17T05:59:26;9.9;97.4
74484;SHT31;62942;52.462;10.846;2022-10-17T06:00:26;9.9;97.4
74484;SHT31;62942;52.462;10.846;2022-10-17T06:01:36;9.9;97.4
74484;SHT31;62942;52.462;10.846;2022-10-17T06:02:36;9.9;97.4
74484;SHT31;62942;52.462;10.846;2022-10-17T06:03:46;9.9;97.4
74484;SHT31;62942;52.462;10.846;2022-10-17T06:04:46;10;97.5
74484;SHT31;62942;52.462;10.846;2022-10-17T06:05:46;10;97.5
74484;SHT31;62942;52.462;10.846;2022-10-17T06:06:56;10;97.5
74484;SHT31;62942;52.462;10.846;2022-10-17T06:07:56;10;97.5
74484;SHT31;62942;52.462;10.846;2022-10-17T06:09:06;10;97.5
74484;SHT31;62942;52.462;10.846;2022-10-17T06:10:06;10.1;97.6
74484;SHT31;62942;52.462;10.846;2022-10-17T06:11:16;10.1;97.6
74484;SHT31;62942;52.462;10.846;2022-10-17T06:12:16;10.1;97.6
74484;SHT31;62942;52.462;10.846;2022-10-17T06:13:16;10.2;97.7
74484;SHT31;62942;52.462;10.846;2022-10-17T06:14:26;10.2;97.7
74484;SHT31;62942;52.462;10.846;2022-10-17T06:15:26;10.2;97.8
74484;SHT31;62942;52.462;10.846;2022-10-17T06:16:36;10.3;97.8
74484;SHT31;62942;52.462;10.846;2022-10-17T06:17:36;10.3;97.8
74484;SHT31;62942;52.462;10.846;2022-10-17T06:18:46;10.3;97.8
74484;SHT31;62942;52.462;10.846;2022-10-17T06:19:46;10.3;97.8
74484;SHT31;62942;52.462;10.846;2022-10-17T06:21:00;10.4;97.9
74484;SHT31;62942;52.462;10.846;2022-10-17T06:22:06;10.4;97.9
74484;SHT31;62942;52.462;10.846;2022-10-17T06:23:06;10.4;97.9
74484;SHT31;62942;52.462;10.846;2022-10-17T06:24:16;10.4;97.9
74484;SHT31;62942;52.462;10.846;2022-10-17T06:25:26;10.5;98
74484;SHT31;62942;52.462;10.846;2022-10-17T06:26:26;10.5;98
74484;SHT31;62942;52.462;10.846;2022-10-17T06:27:36;10.5;98
74484;SHT31;62942;52.462;10.846;2022-10-17T06:28:46;10.5;98
74484;SHT31;62942;52.462;10.846;2022-10-17T06:29:46;10.5;98
74484;SHT31;62942;52.462;10.846;2022-10-17T06:30:56;10.6;98
74484;SHT31;62942;52.462;10.846;2022-10-17T06:32:06;10.6;98.1
74484;SHT31;62942;52.462;10.846;2022-10-17T06:33:06;10.6;98
74484;SHT31;62942;52.462;10.846;2022-10-17T06:34:16;10.6;98.1
74484;SHT31;62942;52.462;10.846;2022-10-17T06:35:26;10.7;98.1
74484;SHT31;62942;52.462;10.846;2022-10-17T06:36:26;10.7;98.1
74484;SHT31;62942;52.462;10.846;2022-10-17T06:37:36;10.8;98.1
74484;SHT31;62942;52.462;10.846;2022-10-17T06:38:46;10.8;98.1
74484;SHT31;62942;52.462;10.846;2022-10-17T06:39:56;10.8;98.1
74484;SHT31;62942;52.462;10.846;2022-10-17T06:41:06;10.9;98.2
74484;SHT31;62942;52.462;10.846;2022-10-17T06:42:06;10.9;98.1
74484;SHT31;62942;52.462;10.846;2022-10-17T06:43:06;10.9;98.2
74484;SHT31;62942;52.462;10.846;2022-10-17T06:44:16;11;98.1
74484;SHT31;62942;52.462;10.846;2022-10-17T06:45:16;11;98.1
74484;SHT31;62942;52.462;10.846;2022-10-17T06:46:26;11.1;98.1
74484;SHT31;62942;52.462;10.846;2022-10-17T06:47:36;11.1;98.2
74484;SHT31;62942;52.462;10.846;2022-10-17T06:48:36;11.2;98.2
74484;SHT31;62942;52.462;10.846;2022-10-17T06:49:46;11.3;98.2
74484;SHT31;62942;52.462;10.846;2022-10-17T06:50:46;11.3;98.2
74484;SHT31;62942;52.462;10.846;2022-10-17T06:51:56;11.4;98.1
74484;SHT31;62942;52.462;10.846;2022-10-17T06:53:06;11.5;98.1
74484;SHT31;62942;52.462;10.846;2022-10-17T06:54:16;11.5;98.1
74484;SHT31;62942;52.462;10.846;2022-10-17T06:55:26;11.6;98
74484;SHT31;62942;52.462;10.846;2022-10-17T06:56:36;11.7;98
74484;SHT31;62942;52.462;10.846;2022-10-17T06:57:36;11.7;97.9
74484;SHT31;62942;52.462;10.846;2022-10-17T06:58:46;11.8;97.8
74484;SHT31;62942;52.462;10.846;2022-10-17T06:59:46;11.8;97.8
74484;SHT31;62942;52.462;10.846;2022-10-17T07:00:57;11.9;97.7
74484;SHT31;62942;52.462;10.846;2022-10-17T07:01:56;11.9;97.6
74484;SHT31;62942;52.462;10.846;2022-10-17T07:03:06;12;97.5
74484;SHT31;62942;52.462;10.846;2022-10-17T07:04:16;12.1;97.4
74484;SHT31;62942;52.462;10.846;2022-10-17T07:05:26;12.2;97.3
74484;SHT31;62942;52.462;10.846;2022-10-17T07:06:36;12.3;97.3
74484;SHT31;62942;52.462;10.846;2022-10-17T07:07:46;12.4;97.2
74484;SHT31;62942;52.462;10.846;2022-10-17T07:08:56;12.5;97
74484;SHT31;62942;52.462;10.846;2022-10-17T07:09:56;12.7;96.9
74484;SHT31;62942;52.462;10.846;2022-10-17T07:10:56;12.8;96.8
74484;SHT31;62942;52.462;10.846;2022-10-17T07:11:56;12.9;96.7
74484;SHT31;62942;52.462;10.846;2022-10-17T07:13:06;13.1;96.4
74484;SHT31;62942;52.462;10.846;2022-10-17T07:14:16;13.3;96.1
74484;SHT31;62942;52.462;10.846;2022-10-17T07:15:16;13.5;95.8